createdAt,value
2018-09-01T00:00:38.686Z,14.30
2018-09-01T00:01:38.675Z,14.20
2018-09-01T00:02:38.693Z,14.80
2018-09-01T00:03:38.649Z,14.00
2018-09-01T00:04:38.637Z,13.70
2018-09-01T00:05:38.631Z,14.10
2018-09-01T00:06:38.616Z,14.50
2018-09-01T00:07:38.635Z,14.30
2018-09-01T00:08:38.599Z,14.10
2018-09-01T00:09:38.597Z,14.10
2018-09-01T00:10:38.571Z,14.00
2018-09-01T00:11:38.559Z,14.50
2018-09-01T00:12:38.572Z,14.20
2018-09-01T00:13:38.543Z,14.00
2018-09-01T00:14:38.531Z,14.00
2018-09-01T00:15:38.521Z,14.60
2018-09-01T00:16:38.504Z,13.90
2018-09-01T00:17:38.528Z,14.30
2018-09-01T00:18:38.488Z,14.10
2018-09-01T00:19:38.466Z,14.20
2018-09-01T00:20:38.452Z,14.70
2018-09-01T00:21:38.449Z,14.80
2018-09-01T00:22:38.460Z,14.90
2018-09-01T00:23:38.412Z,14.70
2018-09-01T00:24:38.404Z,14.40
2018-09-01T00:25:38.400Z,14.50
2018-09-01T00:26:38.384Z,15.20
2018-09-01T00:27:38.400Z,14.90
2018-09-01T00:28:38.368Z,15.20
2018-09-01T00:29:38.346Z,16.00
2018-09-01T00:30:38.365Z,15.10
2018-09-01T00:31:38.328Z,14.40
2018-09-01T00:32:38.351Z,15.20
2018-09-01T00:33:38.304Z,15.50
2018-09-01T00:34:38.292Z,16.00
2018-09-01T00:35:38.276Z,16.00
2018-09-01T00:36:38.268Z,16.20
2018-09-01T00:37:38.287Z,15.60
2018-09-01T00:38:38.251Z,15.90
2018-09-01T00:39:38.245Z,16.20
2018-09-01T00:40:38.230Z,15.50
2018-09-01T00:41:38.212Z,15.30
2018-09-01T00:42:38.248Z,15.40
2018-09-01T00:43:38.193Z,15.40
2018-09-01T00:44:38.180Z,15.60
2018-09-01T00:45:38.172Z,16.40
2018-09-01T00:46:38.160Z,15.10
2018-09-01T00:47:38.186Z,15.70
2018-09-01T00:48:38.134Z,16.40
2018-09-01T00:49:38.132Z,16.50
2018-09-01T00:50:38.107Z,17.60
2018-09-01T00:51:38.113Z,16.10
2018-09-01T00:52:38.159Z,16.30
2018-09-01T00:53:38.090Z,16.50
2018-09-01T00:54:38.081Z,16.20
2018-09-01T00:55:38.063Z,15.70
2018-09-01T00:56:38.051Z,16.80
2018-09-01T00:57:38.075Z,16.50
2018-09-01T00:58:38.029Z,17.60
2018-09-01T00:59:38.026Z,18.00
2018-09-01T01:00:38.017Z,18.60
2018-09-01T01:01:38.023Z,18.20
2018-09-01T01:02:37.991Z,19.30
2018-09-01T01:03:37.986Z,18.40
2018-09-01T01:04:37.969Z,18.90
2018-09-01T01:05:37.953Z,17.60
2018-09-01T01:06:37.981Z,18.10
2018-09-01T01:07:37.933Z,18.20
2018-09-01T01:08:38.333Z,17.70
2018-09-01T01:09:37.969Z,17.40
2018-09-01T01:10:38.141Z,17.20
2018-09-01T01:11:38.005Z,17.40
2018-09-01T01:12:38.291Z,18.60
2018-09-01T01:13:37.957Z,17.80
2018-09-01T01:14:37.875Z,19.20
2018-09-01T01:15:37.849Z,17.20
2018-09-01T01:16:37.827Z,18.50
2018-09-01T01:17:37.815Z,17.30
2018-09-01T01:18:37.841Z,18.00
2018-09-01T01:19:37.799Z,18.60
2018-09-01T01:20:37.782Z,17.90
2018-09-01T01:21:37.779Z,17.80
2018-09-01T01:22:37.761Z,16.80
2018-09-01T01:23:37.780Z,16.30
2018-09-01T01:24:37.756Z,17.20
2018-09-01T01:25:37.716Z,16.40
2018-09-01T01:26:37.714Z,15.20
2018-09-01T01:27:37.692Z,15.20
2018-09-01T01:28:37.714Z,14.60
2018-09-01T01:29:37.712Z,14.40
2018-09-01T01:30:37.661Z,15.40
2018-09-01T01:31:37.654Z,14.90
2018-09-01T01:32:37.647Z,14.70
2018-09-01T01:33:37.628Z,15.60
2018-09-01T01:34:37.647Z,14.30
2018-09-01T01:35:37.642Z,15.00
2018-09-01T01:36:37.600Z,14.90
2018-09-01T01:37:37.591Z,14.70
2018-09-01T01:38:37.574Z,14.50
2018-09-01T01:39:37.597Z,14.70
2018-09-01T01:40:37.588Z,15.30
2018-09-01T01:41:37.556Z,14.50
2018-09-01T01:42:37.541Z,14.50
2018-09-01T01:43:37.591Z,14.00
2018-09-01T01:44:37.531Z,13.20
2018-09-01T01:45:37.529Z,13.80
2018-09-01T01:46:37.493Z,14.00
2018-09-01T01:47:37.479Z,14.70
2018-09-01T01:48:37.469Z,15.50
2018-09-01T01:49:37.532Z,15.00
2018-09-01T01:50:37.482Z,14.40
2018-09-01T01:51:37.445Z,14.50
2018-09-01T01:52:37.421Z,14.70
2018-09-01T01:53:37.415Z,13.90
2018-09-01T01:54:37.431Z,13.80
2018-09-01T01:55:37.388Z,14.30
2018-09-01T01:56:37.382Z,13.50
2018-09-01T01:57:37.356Z,14.20
2018-09-01T01:58:37.347Z,14.00
2018-09-01T01:59:37.368Z,14.40
2018-09-01T02:00:37.348Z,13.90
2018-09-01T02:01:37.356Z,13.50
2018-09-01T02:02:37.304Z,14.30
2018-09-01T02:03:37.318Z,14.10
2018-09-01T02:04:37.320Z,14.20
2018-09-01T02:05:37.270Z,14.00
2018-09-01T02:06:37.275Z,13.00
2018-09-01T02:07:37.251Z,14.70
2018-09-01T02:08:37.236Z,14.30
2018-09-01T02:09:37.251Z,13.90
2018-09-01T02:10:37.240Z,14.00
2018-09-01T02:11:37.200Z,14.00
2018-09-01T02:12:37.192Z,14.20
2018-09-01T02:13:37.188Z,14.40
2018-09-01T02:14:37.194Z,17.10
2018-09-01T02:15:37.160Z,15.00
2018-09-01T02:16:37.144Z,13.80
2018-09-01T02:17:37.134Z,14.20
2018-09-01T02:18:37.126Z,14.10
2018-09-01T02:19:37.134Z,14.30
2018-09-01T02:20:37.106Z,15.10
2018-09-01T02:21:37.098Z,15.40
2018-09-01T02:22:37.082Z,14.80
2018-09-01T02:23:37.070Z,14.50
2018-09-01T02:24:37.092Z,14.90
2018-09-01T02:25:37.042Z,14.20
2018-09-01T02:26:37.042Z,14.00
2018-09-01T02:27:37.033Z,14.40
2018-09-01T02:28:37.031Z,14.30
2018-09-01T02:29:37.041Z,13.90
2018-09-01T02:30:37.003Z,14.80
2018-09-01T02:31:36.981Z,14.90
2018-09-01T02:32:36.981Z,14.30
2018-09-01T02:33:36.999Z,15.20
2018-09-01T02:34:36.981Z,14.10
2018-09-01T02:35:36.941Z,15.60
2018-09-01T02:36:36.932Z,14.90
2018-09-01T02:37:36.945Z,14.80
2018-09-01T02:38:36.910Z,14.80
2018-09-01T02:39:36.971Z,14.00
2018-09-01T02:40:36.893Z,16.70
2018-09-01T02:41:36.869Z,15.90
2018-09-01T02:42:36.864Z,15.00
2018-09-01T02:43:36.850Z,17.00
2018-09-01T02:44:36.869Z,18.00
2018-09-01T02:45:36.832Z,18.20
2018-09-01T02:46:36.812Z,17.20
2018-09-01T02:47:36.807Z,16.80
2018-09-01T02:48:36.790Z,16.30
2018-09-01T02:49:36.812Z,18.80
2018-09-01T02:50:36.802Z,22.90
2018-09-01T02:51:36.764Z,19.00
2018-09-01T02:52:36.753Z,21.50
2018-09-01T02:53:36.735Z,22.10
2018-09-01T02:54:36.760Z,21.90
2018-09-01T02:55:36.711Z,20.20
2018-09-01T02:56:36.704Z,19.60
2018-09-01T02:57:36.688Z,21.10
2018-09-01T02:58:36.688Z,18.30
2018-09-01T02:59:36.698Z,18.50
2018-09-01T03:00:36.648Z,19.20
2018-09-01T03:01:36.644Z,20.50
2018-09-01T03:02:36.619Z,20.00
2018-09-01T03:03:36.620Z,20.60
2018-09-01T03:04:36.638Z,20.30
2018-09-01T03:05:36.593Z,19.20
2018-09-01T03:06:36.590Z,19.60
2018-09-01T03:07:36.569Z,19.20
2018-09-01T03:08:36.561Z,18.20
2018-09-01T03:09:36.593Z,19.30
2018-09-01T03:10:36.532Z,19.00
2018-09-01T03:11:36.526Z,18.80
2018-09-01T03:12:36.515Z,19.50
2018-09-01T03:13:36.507Z,19.20
2018-09-01T03:14:36.522Z,21.30
2018-09-01T03:15:36.484Z,19.90
2018-09-01T03:16:36.474Z,18.00
2018-09-01T03:17:36.458Z,23.90
2018-09-01T03:18:36.452Z,20.40
2018-09-01T03:19:36.466Z,20.60
2018-09-01T03:20:36.422Z,18.30
2018-09-01T03:21:36.415Z,19.40
2018-09-01T03:22:36.404Z,19.30
2018-09-01T03:23:36.389Z,19.80
2018-09-01T03:24:36.413Z,19.00
2018-09-01T03:25:36.375Z,18.90
2018-09-01T03:26:36.359Z,19.10
2018-09-01T03:27:36.348Z,18.50
2018-09-01T03:28:36.338Z,18.60
2018-09-01T03:29:36.358Z,19.10
2018-09-01T03:30:36.315Z,19.50
2018-09-01T03:31:36.311Z,18.20
2018-09-01T03:32:36.297Z,18.60
2018-09-01T03:33:36.293Z,18.00
2018-09-01T03:34:36.305Z,18.40
2018-09-01T03:35:36.272Z,19.40
2018-09-01T03:36:36.255Z,17.80
2018-09-01T03:37:36.246Z,17.90
2018-09-01T03:38:36.232Z,18.10
2018-09-01T03:39:36.259Z,17.90
2018-09-01T03:40:36.211Z,17.10
2018-09-01T03:41:36.208Z,17.80
2018-09-01T03:42:36.188Z,17.60
2018-09-01T03:43:36.174Z,17.70
2018-09-01T03:44:36.198Z,17.10
2018-09-01T03:45:36.183Z,16.50
2018-09-01T03:46:36.141Z,16.40
2018-09-01T03:47:36.142Z,15.80
2018-09-01T03:48:36.121Z,15.70
2018-09-01T03:49:36.150Z,15.60
2018-09-01T03:50:36.103Z,15.50
2018-09-01T03:51:36.087Z,16.30
2018-09-01T03:52:36.074Z,16.20
2018-09-01T03:53:36.065Z,16.00
2018-09-01T03:54:36.109Z,15.20
2018-09-01T03:55:36.045Z,14.90
2018-09-01T03:56:36.031Z,17.20
2018-09-01T03:57:36.026Z,17.40
2018-09-01T03:58:36.012Z,16.40
2018-09-01T03:59:36.021Z,16.40
2018-09-01T04:00:35.988Z,16.20
2018-09-01T04:01:35.975Z,16.00
2018-09-01T04:02:35.995Z,14.70
2018-09-01T04:03:35.942Z,15.60
2018-09-01T04:04:35.934Z,15.60
2018-09-01T04:05:35.923Z,16.30
2018-09-01T04:06:35.908Z,13.80
2018-09-01T04:07:35.932Z,14.00
2018-09-01T04:08:35.890Z,13.80
2018-09-01T04:09:35.878Z,14.40
2018-09-01T04:10:35.898Z,14.40
2018-09-01T04:11:35.854Z,15.30
2018-09-01T04:12:35.878Z,15.60
2018-09-01T04:13:35.832Z,16.10
2018-09-01T04:14:35.852Z,15.00
2018-09-01T04:15:35.815Z,14.70
2018-09-01T04:16:35.796Z,14.10
2018-09-01T04:17:35.825Z,13.50
2018-09-01T04:18:35.777Z,13.60
2018-09-01T04:19:35.767Z,14.40
2018-09-01T04:20:35.760Z,13.50
2018-09-01T04:21:35.758Z,13.10
2018-09-01T04:22:35.774Z,12.20
2018-09-01T04:23:35.720Z,14.00
2018-09-01T04:24:35.718Z,15.90
2018-09-01T04:25:35.703Z,14.70
2018-09-01T04:26:35.688Z,13.20
2018-09-01T04:27:35.718Z,20.90
2018-09-01T04:28:35.669Z,18.60
2018-09-01T04:29:35.650Z,16.70
2018-09-01T04:30:35.646Z,15.60
2018-09-01T04:31:35.627Z,14.00
2018-09-01T04:32:35.667Z,15.10
2018-09-01T04:33:35.613Z,15.60
2018-09-01T04:34:35.602Z,13.40
2018-09-01T04:35:35.596Z,13.80
2018-09-01T04:36:35.579Z,13.10
2018-09-01T04:37:35.617Z,12.10
2018-09-01T04:38:35.561Z,10.30
2018-09-01T04:39:35.557Z,11.90
2018-09-01T04:40:35.543Z,10.60
2018-09-01T04:41:35.529Z,10.60
2018-09-01T04:42:35.555Z,10.10
2018-09-01T04:43:35.501Z,11.90
2018-09-01T04:44:35.495Z,10.60
2018-09-01T04:45:35.490Z,9.90
2018-09-01T04:46:35.475Z,9.30
2018-09-01T04:47:35.493Z,9.30
2018-09-01T04:48:35.471Z,9.50
2018-09-01T04:49:35.441Z,8.90
2018-09-01T04:50:35.424Z,9.20
2018-09-01T04:51:35.449Z,9.30
2018-09-01T04:52:35.413Z,9.70
2018-09-01T04:53:35.391Z,9.20
2018-09-01T04:54:35.383Z,8.80
2018-09-01T04:55:35.392Z,8.30
2018-09-01T04:56:35.389Z,9.20
2018-09-01T04:57:35.355Z,9.30
2018-09-01T04:58:35.344Z,9.00
2018-09-01T04:59:35.332Z,14.20
2018-09-01T05:00:35.345Z,12.90
2018-09-01T05:01:35.343Z,22.20
2018-09-01T05:02:35.305Z,19.60
2018-09-01T05:03:35.280Z,18.80
2018-09-01T05:04:35.275Z,13.30
2018-09-01T05:05:35.262Z,11.70
2018-09-01T05:06:35.279Z,12.10
2018-09-01T05:07:35.227Z,10.80
2018-09-01T05:08:35.213Z,10.40
2018-09-01T05:09:35.210Z,10.70
2018-09-01T05:10:35.189Z,10.30
2018-09-01T05:11:35.215Z,10.00
2018-09-01T05:12:35.174Z,10.80
2018-09-01T05:13:35.171Z,9.90
2018-09-01T05:14:35.149Z,9.60
2018-09-01T05:15:35.168Z,9.90
2018-09-01T05:16:35.136Z,9.50
2018-09-01T05:17:35.116Z,9.90
2018-09-01T05:18:35.100Z,9.50
2018-09-01T05:19:35.095Z,9.10
2018-09-01T05:20:35.118Z,8.80
2018-09-01T05:21:35.078Z,9.10
2018-09-01T05:22:35.056Z,8.80
2018-09-01T05:23:35.052Z,8.80
2018-09-01T05:24:35.040Z,8.90
2018-09-01T05:25:35.069Z,9.30
2018-09-01T05:26:35.021Z,8.80
2018-09-01T05:27:34.997Z,8.60
2018-09-01T05:28:34.985Z,8.70
2018-09-01T05:29:34.984Z,9.00
2018-09-01T05:30:35.006Z,8.40
2018-09-01T05:31:34.961Z,8.40
2018-09-01T05:32:34.948Z,8.40
2018-09-01T05:33:34.932Z,8.00
2018-09-01T05:34:34.924Z,8.30
2018-09-01T05:35:34.941Z,7.70
2018-09-01T05:36:34.991Z,8.00
2018-09-01T05:37:34.886Z,7.70
2018-09-01T05:38:34.914Z,7.20
2018-09-01T05:39:34.875Z,7.70
2018-09-01T05:40:34.863Z,7.60
2018-09-01T05:41:34.895Z,7.40
2018-09-01T05:42:34.845Z,6.80
2018-09-01T05:43:34.862Z,7.50
2018-09-01T05:44:34.818Z,7.10
2018-09-01T05:45:34.810Z,6.80
2018-09-01T05:46:34.833Z,6.50
2018-09-01T05:47:34.788Z,6.70
2018-09-01T05:48:34.775Z,6.40
2018-09-01T05:49:34.785Z,6.60
2018-09-01T05:50:34.777Z,5.90
2018-09-01T05:51:34.755Z,5.70
2018-09-01T05:52:34.731Z,5.40
2018-09-01T05:53:34.721Z,5.70
2018-09-01T05:54:34.740Z,6.00
2018-09-01T05:55:34.692Z,6.50
2018-09-01T05:56:34.682Z,6.20
2018-09-01T05:57:34.666Z,6.00
2018-09-01T05:58:34.657Z,6.30
2018-09-01T05:59:34.676Z,6.20
2018-09-01T06:00:34.685Z,6.60
2018-09-01T06:01:34.631Z,6.90
2018-09-01T06:02:34.617Z,7.00
2018-09-01T06:03:34.619Z,6.40
2018-09-01T06:04:34.640Z,6.50
2018-09-01T06:05:34.582Z,6.20
2018-09-01T06:06:34.568Z,5.80
2018-09-01T06:07:34.554Z,5.80
2018-09-01T06:08:34.580Z,5.70
2018-09-01T06:09:34.608Z,5.40
2018-09-01T06:10:34.532Z,4.70
2018-09-01T06:11:34.519Z,5.00
2018-09-01T06:12:34.506Z,4.50
2018-09-01T06:13:34.501Z,5.10
2018-09-01T06:14:34.509Z,4.70
2018-09-01T06:15:34.478Z,4.20
2018-09-01T06:16:34.462Z,4.40
2018-09-01T06:17:34.515Z,3.80
2018-09-01T06:18:34.469Z,4.10
2018-09-01T06:19:34.454Z,4.00
2018-09-01T06:20:34.414Z,4.00
2018-09-01T06:21:34.429Z,4.30
2018-09-01T06:22:34.393Z,4.30
2018-09-01T06:23:34.391Z,4.60
2018-09-01T06:24:34.399Z,4.30
2018-09-01T06:25:34.368Z,4.30
2018-09-01T06:26:34.349Z,3.70
2018-09-01T06:27:34.341Z,3.80
2018-09-01T06:28:34.359Z,4.10
2018-09-01T06:29:34.313Z,3.50
2018-09-01T06:30:34.304Z,3.60
2018-09-01T06:31:34.289Z,3.60
2018-09-01T06:32:34.279Z,3.10
2018-09-01T06:33:34.299Z,2.90
2018-09-01T06:34:34.262Z,3.40
2018-09-01T06:35:34.248Z,3.30
2018-09-01T06:36:34.242Z,3.40
2018-09-01T06:37:34.282Z,3.20
2018-09-01T06:38:34.244Z,3.30
2018-09-01T06:39:34.207Z,3.00
2018-09-01T06:40:34.233Z,3.30
2018-09-01T06:41:34.187Z,3.30
2018-09-01T06:42:34.196Z,3.10
2018-09-01T06:43:34.148Z,3.30
2018-09-01T06:44:34.149Z,3.30
2018-09-01T06:45:34.159Z,3.60
2018-09-01T06:46:34.116Z,3.40
2018-09-01T06:47:34.116Z,2.70
2018-09-01T06:48:34.092Z,3.30
2018-09-01T06:49:34.120Z,3.20
2018-09-01T06:50:34.072Z,2.60
2018-09-01T06:51:34.100Z,2.40
2018-09-01T06:52:34.050Z,2.50
2018-09-01T06:53:34.051Z,2.50
2018-09-01T06:54:34.065Z,3.00
2018-09-01T06:55:34.060Z,2.80
2018-09-01T06:56:34.011Z,3.00
2018-09-01T06:57:34.000Z,2.50
2018-09-01T06:58:34.000Z,2.50
2018-09-01T06:59:33.975Z,2.90
2018-09-01T07:00:33.996Z,3.20
2018-09-01T07:01:33.983Z,2.60
2018-09-01T07:02:33.946Z,2.50
2018-09-01T07:03:33.928Z,2.30
2018-09-01T07:04:33.927Z,2.50
2018-09-01T07:05:33.904Z,2.20
2018-09-01T07:06:33.931Z,2.10
2018-09-01T07:07:33.900Z,2.20
2018-09-01T07:08:33.873Z,2.20
2018-09-01T07:09:33.859Z,2.40
2018-09-01T07:10:33.861Z,1.80
2018-09-01T07:11:33.899Z,2.20
2018-09-01T07:12:33.827Z,1.80
2018-09-01T07:13:33.820Z,2.00
2018-09-01T07:14:33.832Z,2.00
2018-09-01T07:15:33.831Z,2.20
2018-09-01T07:16:33.795Z,2.00
2018-09-01T07:17:33.779Z,1.90
2018-09-01T07:18:33.787Z,2.30
2018-09-01T07:19:33.760Z,2.30
2018-09-01T07:20:33.777Z,2.20
2018-09-01T07:21:33.743Z,2.20
2018-09-01T07:22:33.733Z,2.00
2018-09-01T07:23:33.793Z,1.90
2018-09-01T07:24:33.705Z,2.40
2018-09-01T07:25:33.823Z,2.80
2018-09-01T07:26:33.679Z,2.40
2018-09-01T07:27:33.675Z,2.40
2018-09-01T07:28:33.665Z,2.40
2018-09-01T07:29:33.654Z,3.00
2018-09-01T07:30:33.827Z,3.40
2018-09-01T07:31:34.048Z,2.50
2018-09-01T07:32:33.611Z,2.90
2018-09-01T07:33:33.649Z,2.80
2018-09-01T07:34:33.602Z,2.90
2018-09-01T07:35:33.615Z,3.30
2018-09-01T07:36:33.579Z,3.50
2018-09-01T07:37:33.573Z,3.20
2018-09-01T07:38:33.597Z,3.30
2018-09-01T07:39:33.541Z,4.10
2018-09-01T07:40:33.525Z,3.40
2018-09-01T07:41:33.515Z,3.90
2018-09-01T07:42:33.506Z,2.90
2018-09-01T07:43:33.527Z,3.10
2018-09-01T07:44:33.483Z,2.50
2018-09-01T07:45:33.476Z,2.50
2018-09-01T07:46:33.458Z,2.50
2018-09-01T07:47:33.444Z,2.70
2018-09-01T07:48:33.458Z,2.50
2018-09-01T07:49:33.412Z,2.40
2018-09-01T07:50:33.416Z,2.60
2018-09-01T07:51:33.392Z,2.50
2018-09-01T07:52:33.382Z,2.50
2018-09-01T07:53:33.414Z,2.70
2018-09-01T07:54:33.411Z,3.20
2018-09-01T07:55:33.350Z,3.90
2018-09-01T07:56:33.343Z,4.30
2018-09-01T07:57:33.325Z,5.20
2018-09-01T07:58:33.354Z,3.30
2018-09-01T07:59:33.306Z,2.90
2018-09-01T08:00:33.306Z,3.10
2018-09-01T08:01:33.279Z,3.10
2018-09-01T08:02:33.308Z,3.20
2018-09-01T08:03:33.256Z,3.10
2018-09-01T08:04:33.247Z,2.90
2018-09-01T08:05:33.235Z,3.70
2018-09-01T08:06:33.223Z,3.60
2018-09-01T08:07:33.334Z,3.10
2018-09-01T08:08:33.206Z,3.40
2018-09-01T08:09:33.190Z,3.10
2018-09-01T08:10:33.186Z,3.00
2018-09-01T08:11:33.173Z,2.70
2018-09-01T08:12:33.188Z,3.20
2018-09-01T08:13:33.203Z,3.10
2018-09-01T08:14:33.193Z,2.60
2018-09-01T08:15:33.129Z,2.80
2018-09-01T08:16:33.110Z,2.80
2018-09-01T08:17:33.145Z,3.10
2018-09-01T08:18:33.126Z,3.00
2018-09-01T08:19:33.095Z,2.80
2018-09-01T08:20:33.081Z,2.80
2018-09-01T08:21:33.083Z,2.60
2018-09-01T08:22:33.063Z,2.60
2018-09-01T08:23:33.075Z,2.70
2018-09-01T08:24:33.041Z,2.40
2018-09-01T08:25:33.023Z,2.90
2018-09-01T08:26:33.009Z,2.70
2018-09-01T08:27:33.031Z,2.60
2018-09-01T08:28:32.995Z,2.40
2018-09-01T08:29:32.976Z,2.60
2018-09-01T08:30:33.000Z,2.50
2018-09-01T08:31:32.952Z,2.40
2018-09-01T08:32:32.979Z,2.80
2018-09-01T08:33:32.974Z,2.90
2018-09-01T08:34:32.927Z,2.90
2018-09-01T08:35:32.920Z,3.00
2018-09-01T08:36:32.902Z,2.80
2018-09-01T08:37:32.926Z,2.60
2018-09-01T08:38:32.891Z,2.70
2018-09-01T08:39:32.906Z,2.80
2018-09-01T08:40:32.854Z,2.60
2018-09-01T08:41:32.843Z,3.00
2018-09-01T08:42:32.861Z,2.90
2018-09-01T08:43:32.873Z,2.80
2018-09-01T08:44:32.806Z,2.70
2018-09-01T08:45:32.799Z,2.60
2018-09-01T08:46:32.787Z,2.80
2018-09-01T08:47:32.785Z,2.70
2018-09-01T08:48:32.806Z,2.70
2018-09-01T08:49:32.755Z,2.80
2018-09-01T08:50:32.748Z,2.80
2018-09-01T08:51:32.789Z,2.70
2018-09-01T08:52:32.778Z,3.00
2018-09-01T08:53:32.859Z,3.00
2018-09-01T08:54:32.694Z,2.80
2018-09-01T08:55:32.674Z,3.20
2018-09-01T08:56:32.708Z,2.70
2018-09-01T08:57:32.666Z,2.60
2018-09-01T08:58:32.840Z,2.70
2018-09-01T08:59:32.643Z,2.40
2018-09-01T09:00:32.642Z,2.50
2018-09-01T09:01:32.726Z,2.40
2018-09-01T09:02:32.612Z,2.70
2018-09-01T09:03:32.596Z,2.50
2018-09-01T09:04:32.604Z,2.10
2018-09-01T09:05:32.634Z,2.60
2018-09-01T09:06:32.590Z,2.60
2018-09-01T09:07:32.545Z,2.50
2018-09-01T09:08:32.536Z,2.20
2018-09-01T09:09:32.575Z,2.50
2018-09-01T09:10:32.526Z,2.30
2018-09-01T09:11:32.578Z,2.40
2018-09-01T09:12:32.542Z,2.30
2018-09-01T09:13:32.493Z,2.20
2018-09-01T09:14:32.488Z,2.50
2018-09-01T09:15:32.518Z,2.40
2018-09-01T09:16:32.479Z,2.40
2018-09-01T09:17:32.486Z,2.50
2018-09-01T09:18:32.488Z,2.50
2018-09-01T09:19:32.440Z,2.20
2018-09-01T09:20:32.432Z,2.70
2018-09-01T09:21:32.394Z,2.60
2018-09-01T09:22:32.394Z,2.60
2018-09-01T09:23:32.415Z,2.50
2018-09-01T09:24:32.388Z,3.10
2018-09-01T09:25:32.433Z,4.10
2018-09-01T09:26:32.363Z,3.10
2018-09-01T09:27:32.340Z,2.70
2018-09-01T09:28:32.321Z,2.50
2018-09-01T09:29:32.372Z,2.40
2018-09-01T09:30:32.354Z,2.10
2018-09-01T09:31:32.371Z,2.30
2018-09-01T09:32:32.346Z,2.30
2018-09-01T09:33:32.318Z,2.60
2018-09-01T09:34:32.306Z,2.50
2018-09-01T09:35:32.247Z,2.50
2018-09-01T09:36:32.243Z,2.40
2018-09-01T09:37:32.224Z,2.20
2018-09-01T09:38:32.249Z,2.60
2018-09-01T09:39:32.205Z,2.00
2018-09-01T09:40:32.189Z,3.00
2018-09-01T09:41:32.230Z,2.30
2018-09-01T09:42:32.170Z,2.30
2018-09-01T09:43:32.190Z,2.20
2018-09-01T09:44:32.151Z,2.50
2018-09-01T09:45:32.148Z,2.60
2018-09-01T09:46:32.140Z,2.50
2018-09-01T09:47:32.195Z,2.10
2018-09-01T09:48:32.105Z,2.20
2018-09-01T09:49:32.098Z,2.00
2018-09-01T09:50:32.087Z,2.30
2018-09-01T09:51:32.083Z,2.40
2018-09-01T09:52:32.094Z,2.50
2018-09-01T09:53:32.065Z,2.10
2018-09-01T09:54:32.078Z,2.70
2018-09-01T09:55:32.028Z,2.50
2018-09-01T09:56:32.019Z,2.60
2018-09-01T09:57:32.001Z,2.30
2018-09-01T09:58:32.133Z,2.60
2018-09-01T09:59:31.981Z,2.60
2018-09-01T10:00:31.972Z,2.50
2018-09-01T10:01:31.962Z,2.30
2018-09-01T10:02:31.950Z,2.10
2018-09-01T10:03:31.977Z,2.30
2018-09-01T10:04:32.016Z,2.30
2018-09-01T10:05:31.950Z,2.20
2018-09-01T10:06:31.916Z,2.30
2018-09-01T10:07:31.890Z,2.40
2018-09-01T10:08:31.890Z,2.00
2018-09-01T10:09:31.938Z,2.10
2018-09-01T10:10:31.868Z,2.20
2018-09-01T10:11:31.859Z,2.20
2018-09-01T10:12:31.857Z,2.20
2018-09-01T10:13:31.846Z,2.10
2018-09-01T10:14:31.876Z,2.00
2018-09-01T10:15:31.818Z,2.30
2018-09-01T10:16:31.816Z,2.30
2018-09-01T10:17:31.795Z,2.30
2018-09-01T10:18:31.790Z,2.90
2018-09-01T10:19:31.812Z,2.70
2018-09-01T10:20:31.831Z,6.60
2018-09-01T10:21:31.781Z,4.60
2018-09-01T10:22:31.822Z,2.40
2018-09-01T10:23:31.806Z,2.40
2018-09-01T10:24:31.807Z,2.00
2018-09-01T10:25:31.851Z,1.90
2018-09-01T10:26:31.773Z,2.20
2018-09-01T10:27:31.760Z,2.00
2018-09-01T10:28:31.750Z,2.00
2018-09-01T10:29:31.766Z,2.30
2018-09-01T10:30:31.788Z,2.10
2018-09-01T10:31:31.728Z,1.80
2018-09-01T10:32:31.692Z,2.40
2018-09-01T10:33:31.703Z,2.10
2018-09-01T10:34:31.706Z,2.20
2018-09-01T10:35:31.778Z,2.30
2018-09-01T10:36:31.672Z,2.10
2018-09-01T10:37:31.949Z,1.90
2018-09-01T10:38:31.695Z,2.20
2018-09-01T10:39:31.598Z,2.00
2018-09-01T10:40:31.700Z,1.90
2018-09-01T10:41:31.608Z,2.10
2018-09-01T10:42:31.644Z,2.10
2018-09-01T10:43:31.578Z,2.00
2018-09-01T10:44:31.616Z,2.10
2018-09-01T10:45:31.544Z,1.70
2018-09-01T10:46:31.548Z,2.20
2018-09-01T10:47:31.636Z,2.20
2018-09-01T10:48:31.552Z,2.30
2018-09-01T10:49:31.535Z,3.00
2018-09-01T10:50:31.500Z,2.30
2018-09-01T10:51:31.486Z,2.50
2018-09-01T10:52:31.583Z,2.70
2018-09-01T10:53:31.793Z,2.50
2018-09-01T10:54:31.477Z,2.20
2018-09-01T10:55:31.465Z,2.10
2018-09-01T10:56:31.464Z,2.70
2018-09-01T10:57:31.524Z,2.60
2018-09-01T10:58:31.627Z,2.40
2018-09-01T10:59:31.602Z,2.40
2018-09-01T11:00:31.478Z,2.30
2018-09-01T11:01:31.407Z,2.20
2018-09-01T11:02:31.410Z,2.20
2018-09-01T11:03:31.378Z,2.20
2018-09-01T11:04:31.393Z,2.40
2018-09-01T11:05:31.468Z,2.40
2018-09-01T11:06:31.422Z,2.70
2018-09-01T11:07:31.356Z,2.70
2018-09-01T11:08:31.351Z,2.40
2018-09-01T11:09:31.323Z,2.00
2018-09-01T11:10:31.339Z,2.20
2018-09-01T11:11:31.576Z,2.00
2018-09-01T11:12:31.304Z,2.20
2018-09-01T11:13:31.302Z,2.00
2018-09-01T11:14:31.271Z,2.30
2018-09-01T11:15:31.262Z,2.40
2018-09-01T11:16:31.318Z,2.20
2018-09-01T11:17:31.336Z,2.30
2018-09-01T11:18:31.750Z,2.10
2018-09-01T11:19:31.241Z,2.00
2018-09-01T11:20:31.164Z,2.10
2018-09-01T11:21:31.256Z,2.20
2018-09-01T11:22:31.258Z,2.00
2018-09-01T11:23:31.179Z,2.00
2018-09-01T11:24:31.182Z,2.10
2018-09-01T11:25:31.156Z,2.00
2018-09-01T11:26:31.156Z,2.20
2018-09-01T11:27:31.328Z,2.20
2018-09-01T11:28:31.064Z,1.80
2018-09-01T11:29:31.136Z,2.10
2018-09-01T11:30:31.107Z,1.90
2018-09-01T11:31:31.172Z,2.00
2018-09-01T11:32:31.049Z,2.00
2018-09-01T11:33:31.093Z,2.20
2018-09-01T11:34:31.066Z,2.10
2018-09-01T11:35:31.258Z,1.90
2018-09-01T11:36:31.150Z,2.20
2018-09-01T11:37:31.020Z,2.20
2018-09-01T11:38:31.028Z,2.00
2018-09-01T11:39:31.025Z,2.20
2018-09-01T11:40:31.006Z,2.00
2018-09-01T11:41:31.083Z,2.00
2018-09-01T11:42:31.077Z,2.00
2018-09-01T11:43:30.990Z,1.90
2018-09-01T11:44:30.941Z,2.30
2018-09-01T11:45:30.946Z,2.20
2018-09-01T11:46:31.016Z,2.10
2018-09-01T11:47:30.977Z,2.40
2018-09-01T11:48:30.945Z,2.60
2018-09-01T11:49:30.901Z,2.50
2018-09-01T11:50:30.886Z,4.60
2018-09-01T11:51:30.883Z,6.10
2018-09-01T11:52:30.960Z,3.90
2018-09-01T11:53:30.907Z,2.50
2018-09-01T11:54:30.873Z,2.10
2018-09-01T11:55:30.776Z,2.00
2018-09-01T11:56:30.776Z,2.00
2018-09-01T11:57:30.795Z,1.80
2018-09-01T11:58:30.880Z,1.90
2018-09-01T11:59:30.755Z,2.60
2018-09-01T12:00:30.754Z,2.50
2018-09-01T12:01:30.781Z,2.10
2018-09-01T12:02:30.712Z,3.20
2018-09-01T12:03:30.716Z,2.30
2018-09-01T12:04:30.700Z,2.20
2018-09-01T12:05:30.682Z,1.90
2018-09-01T12:06:30.700Z,1.80
2018-09-01T12:07:30.661Z,2.00
2018-09-01T12:08:30.657Z,1.90
2018-09-01T12:09:30.673Z,1.90
2018-09-01T12:10:30.639Z,1.90
2018-09-01T12:11:30.651Z,2.00
2018-09-01T12:12:30.628Z,1.80
2018-09-01T12:13:30.604Z,1.90
2018-09-01T12:14:30.584Z,1.90
2018-09-01T12:15:30.590Z,1.80
2018-09-01T12:16:30.614Z,1.80
2018-09-01T12:17:30.561Z,2.10
2018-09-01T12:18:30.580Z,2.10
2018-09-01T12:19:30.632Z,2.30
2018-09-01T12:20:30.521Z,2.20
2018-09-01T12:21:30.603Z,2.60
2018-09-01T12:22:30.505Z,1.90
2018-09-01T12:23:30.490Z,2.10
2018-09-01T12:24:30.479Z,1.70
2018-09-01T12:25:30.486Z,1.80
2018-09-01T12:26:30.542Z,1.80
2018-09-01T12:27:30.460Z,1.90
2018-09-01T12:28:30.444Z,1.90
2018-09-01T12:29:30.429Z,1.60
2018-09-01T12:30:30.418Z,1.80
2018-09-01T12:31:30.484Z,1.80
2018-09-01T12:32:30.406Z,1.80
2018-09-01T12:33:30.385Z,1.80
2018-09-01T12:34:30.381Z,1.80
2018-09-01T12:35:30.529Z,1.80
2018-09-01T12:36:30.418Z,2.00
2018-09-01T12:37:30.354Z,1.60
2018-09-01T12:38:30.374Z,1.80
2018-09-01T12:39:30.351Z,1.60
2018-09-01T12:40:30.340Z,2.70
2018-09-01T12:41:30.354Z,3.80
2018-09-01T12:42:30.360Z,2.50
2018-09-01T12:43:30.302Z,4.10
2018-09-01T12:44:30.292Z,2.90
2018-09-01T12:45:30.303Z,2.30
2018-09-01T12:46:30.283Z,2.70
2018-09-01T12:47:30.328Z,1.80
2018-09-01T12:48:30.244Z,1.80
2018-09-01T12:49:30.248Z,1.90
2018-09-01T12:50:30.246Z,1.80
2018-09-01T12:51:30.212Z,1.80
2018-09-01T12:52:30.240Z,3.20
2018-09-01T12:53:30.190Z,3.30
2018-09-01T12:54:30.190Z,2.30
2018-09-01T12:55:30.170Z,3.00
2018-09-01T12:56:30.190Z,2.90
2018-09-01T12:57:30.253Z,2.10
2018-09-01T12:58:30.138Z,2.00
2018-09-01T12:59:30.127Z,1.90
2018-09-01T13:00:30.120Z,1.90
2018-09-01T13:01:30.125Z,1.80
2018-09-01T13:02:30.136Z,1.70
2018-09-01T13:03:30.084Z,1.80
2018-09-01T13:04:30.078Z,1.90
2018-09-01T13:05:30.064Z,1.70
2018-09-01T13:06:30.057Z,1.70
2018-09-01T13:07:30.090Z,1.80
2018-09-01T13:08:30.026Z,1.60